Relevés horaires Les Attelas (Suisse)


Relevés horaires à Les Attelas - Mardi 05 Janv. 2016
Heure UTC1 Température [°C] Vent [km/h] Hum. [%] Pres.4 [hPa] Visi. [Km] Nébu. [octa] Préc.5 [mm] Cond.
2m. Res. Ros. Dir.2 Vit. Moy. Raf.3
23:00 -11.6 -18.2 -15.5 S 13.0 13.0 16.7 73 700(-0.1/3h) -- -- -- --
22:00 -11.7 -18.8 -15.5 S 14.8 14.8 18.5 73 700(0.2/3h) -- -- -- --
21:00 -10.8 -17.7 -13.9 SSO 14.8 18.5 24.1 78 700(0.5/3h) -- -- -- --
20:00 -11.3 -17.8 -14.1 OSO 13.0 14.8 18.5 80 700(0.6/3h) -- -- -- --
19:00 -10.9 -16.1 -12.4 NO 9.3 9.3 14.8 89 700(0.5/3h) -- -- -- --
18:00 -10.7 -17.1 -14.4 OSO 13.0 27.8 37.0 74 700(0.1/3h) -- -- -- --
17:00 -10.8 -19 -15.4 SSO 20.4 22.2 33.3 69 700(0.2/3h) -- -- -- --
16:00 -10.2 -19.5 -13.2 SSO 27.8 27.8 37.0 79 700(0.1/3h) -- -- -- --
15:00 -9.8 -16.9 -10.2 SSO 16.7 18.5 27.8 97 700(-0.2/3h) -- -- -- --
14:00 -9.8 -16.9 -9.8 SO 16.7 16.7 25.9 100 700(-0.2/3h) -- -- -- --
13:00 -9.5 -15.6 -10.7 S 13.0 18.5 24.1 91 700(-0.2/3h) -- -- -- --
12:00 -9.6 -17.4 -9.6 SSO 20.4 29.6 44.4 100 700(0.3/3h) -- -- -- --
11:00 -9.0 -17.9 -11.8 SSO 27.8 29.6 33.3 80 700(0.5/3h) -- -- -- --
10:00 -9.7 -18.2 -10.1 SSO 24.1 27.8 33.3 97 700(0.8/3h) -- -- -- --
09:00 -9.8 -17.3 -10.6 SO 18.5 24.1 44.4 94 700(0.9/3h) -- -- -- --
08:00 -9.9 -17.8 -11.2 SSO 20.4 24.1 38.9 90 700(1.4/3h) -- -- -- --
07:00 -10.4 -18.8 -10.4 SO 22.2 24.1 44.4 100 700(1.1/3h) -- -- -- --
06:00 -8.8 -16 -8.8 SSO 18.5 31.5 57.4 100 700(0.6/3h) -- -- -- --
05:00 -8.6 -17.4 -8.6 SO 27.8 31.5 57.4 100 700(-0.6/3h) -- -- -- --
04:00 -8.2 -12.9 -8.3 O 9.3 31.5 48.2 99 700(-0.1/3h) -- -- -- --
03:00 -8.1 -17.2 -8.1 SO 31.5 31.5 48.2 100 700(-0.6/3h) -- -- -- --
02:00 -8.1 -15.5 -8.2 SO 20.4 24.1 33.3 99 700(-0.5/3h) -- -- -- --
01:00 -7.8 -14.8 -8.4 S 18.5 24.1 37.0 95 700(-1.1/3h) -- -- -- --
00:00 -8.1 -16.5 -9.0 SO 25.9 35.2 48.2 93 700(-0.5/3h) -- -- -- --

1 Coordinated Universal Time. Actuellement il est 23:00 locale et 21:00 UTC.

2 Le vent souffle depuis la direction indiquée vers la direction oposée.

3 Les rafales max. sont disponible 40 min après l'heure du relevé.

4 Pour les stations d'altitude (plus de 600m) le géopotentiel du niveau le plus proche de la pression obligatoire est indiqué.

5 Les stations disposant d'un diffuseur peuvent indiquer "trace". Cela signifie que des précipitations ont touchés le sol mais que la quantité est inférieure à 0.1 mm.

Copyright

Les données affichées sur cette page sont la propriété exclusive de Météo Suisse.

Récapitulatif de la journée
Température [°C] Vent [km/h] Ensoleillement4 [h] Precipitations totale5 [mm] Pression [Hpa]
Min1 Max.2 Moy.3 Max. Min Max.
-10.2 -8.8 23.8 57.4 5 h 0 min 0 700.0 700.0

1 Température minimale relevée entre 18:00 UTC la veille et 18:00 UTC le jour donné.

2 Température maximale relevée entre 06:00 UTC le jour donné et 06:00 UTC le lendemain.

3 Vent moyen de la journée basé sur les relevés horaires.

4 Ensoleillement en heures relevé entre 06:00 UTC la veille et 06:00 UTC le jour donné.

5 Précipitations totales tombées entre 06:00 UTC la jour donné et 06:00 UTC le lendemain.

Graphiques horaires